createdAt,value
2022-10-30T00:02:40.250Z,27.38
2022-10-30T00:05:46.140Z,27.08
2022-10-30T00:08:50.228Z,26.83
2022-10-30T00:11:54.131Z,22.73
2022-10-30T00:14:57.995Z,22.88
2022-10-30T00:18:02.644Z,25.08
2022-10-30T00:21:08.933Z,25.65
2022-10-30T00:24:12.763Z,20.13
2022-10-30T00:27:16.814Z,24.38
2022-10-30T00:30:20.999Z,21.63
2022-10-30T00:33:25.003Z,23.08
2022-10-30T00:36:28.865Z,28.38
2022-10-30T00:39:32.421Z,25.92
2022-10-30T00:42:36.336Z,23.92
2022-10-30T00:45:40.444Z,22.48
2022-10-30T00:48:48.479Z,23.30
2022-10-30T00:51:54.483Z,19.08
2022-10-30T00:55:03.343Z,31.98
2022-10-30T00:58:13.311Z,24.15
2022-10-30T01:01:22.236Z,25.85
2022-10-30T01:04:29.935Z,21.27
2022-10-30T01:07:34.475Z,23.80
2022-10-30T01:10:39.230Z,19.25
2022-10-30T01:13:46.994Z,21.25
2022-10-30T01:17:18.461Z,17.27
2022-10-30T01:20:40.899Z,22.25
2022-10-30T01:24:00.067Z,18.48
2022-10-30T01:27:30.852Z,26.45
2022-10-30T01:30:56.444Z,25.05
2022-10-30T01:34:14.009Z,24.23
2022-10-30T01:37:21.016Z,21.42
2022-10-30T01:40:25.916Z,21.33
2022-10-30T01:43:31.630Z,19.63
2022-10-30T01:46:47.126Z,27.30
2022-10-30T01:50:15.734Z,20.08
2022-10-30T01:53:40.836Z,21.55
2022-10-30T01:57:34.840Z,20.00
2022-10-30T02:00:42.196Z,23.10
2022-10-30T02:03:46.685Z,22.90
2022-10-30T02:06:51.411Z,17.10
2022-10-30T02:09:55.720Z,20.75
2022-10-30T02:12:59.894Z,17.50
2022-10-30T02:16:04.307Z,21.20
2022-10-30T02:19:08.384Z,20.55
2022-10-30T02:22:12.753Z,20.02
2022-10-30T02:25:16.751Z,18.73
2022-10-30T02:28:20.789Z,25.80
2022-10-30T02:31:24.629Z,21.45
2022-10-30T02:34:29.077Z,18.20
2022-10-30T02:37:35.615Z,22.55
2022-10-30T02:40:39.405Z,19.73
2022-10-30T02:43:43.278Z,22.13
2022-10-30T02:46:47.108Z,20.20
2022-10-30T02:49:51.073Z,22.58
2022-10-30T02:52:55.648Z,22.15
2022-10-30T02:56:04.653Z,20.35
2022-10-30T02:59:08.458Z,21.80
2022-10-30T03:02:12.674Z,23.52
2022-10-30T03:05:16.632Z,19.48
2022-10-30T03:08:20.760Z,17.73
2022-10-30T03:11:24.694Z,17.98
2022-10-30T03:14:28.448Z,18.40
2022-10-30T03:17:32.474Z,16.33
2022-10-30T03:20:36.607Z,20.25
2022-10-30T03:23:40.828Z,19.10
2022-10-30T03:26:45.271Z,26.92
2022-10-30T03:29:49.309Z,16.70
2022-10-30T03:32:53.117Z,17.83
2022-10-30T03:35:57.534Z,14.70
2022-10-30T03:39:01.696Z,20.30
2022-10-30T03:42:05.589Z,20.65
2022-10-30T03:45:10.061Z,21.02
2022-10-30T03:48:13.986Z,16.35
2022-10-30T03:51:17.802Z,19.25
2022-10-30T03:54:21.528Z,17.00
2022-10-30T03:57:25.344Z,17.65
2022-10-30T04:00:29.222Z,18.48
2022-10-30T04:03:34.393Z,20.60
2022-10-30T04:06:38.697Z,19.73
2022-10-30T04:09:45.466Z,19.52
2022-10-30T04:12:49.249Z,24.42
2022-10-30T04:15:55.985Z,24.27
2022-10-30T04:19:01.034Z,19.63
2022-10-30T04:22:04.807Z,21.35
2022-10-30T04:25:09.360Z,19.60
2022-10-30T04:28:14.090Z,22.85
2022-10-30T04:31:18.128Z,18.98
2022-10-30T04:34:22.291Z,22.35
2022-10-30T04:37:26.494Z,16.80
2022-10-30T04:40:32.985Z,18.13
2022-10-30T04:43:37.117Z,20.25
2022-10-30T04:46:40.802Z,17.55
2022-10-30T04:49:44.919Z,17.75
2022-10-30T04:52:49.135Z,19.15
2022-10-30T04:55:54.342Z,21.90
2022-10-30T04:58:58.033Z,18.65
2022-10-30T05:02:01.976Z,16.60
2022-10-30T05:05:06.536Z,21.02
2022-10-30T05:08:10.966Z,22.83
2022-10-30T05:11:15.280Z,19.20
2022-10-30T05:14:19.194Z,19.13
2022-10-30T05:17:23.468Z,19.58
2022-10-30T05:20:27.133Z,17.10
2022-10-30T05:23:30.957Z,15.88
2022-10-30T05:26:34.876Z,16.23
2022-10-30T05:29:38.638Z,18.48
2022-10-30T05:32:42.563Z,19.75
2022-10-30T05:35:46.563Z,20.52
2022-10-30T05:38:50.992Z,17.95
2022-10-30T05:41:54.733Z,16.15
2022-10-30T05:45:01.250Z,17.27
2022-10-30T05:48:06.943Z,16.80
2022-10-30T05:51:11.020Z,20.63
2022-10-30T05:54:14.811Z,15.07
2022-10-30T05:57:18.542Z,18.10
2022-10-30T06:00:22.521Z,15.20
2022-10-30T06:03:26.563Z,17.08
2022-10-30T06:06:30.487Z,21.65
2022-10-30T06:09:34.473Z,17.95
2022-10-30T06:12:38.136Z,19.98
2022-10-30T06:15:41.960Z,16.83
2022-10-30T06:18:45.730Z,19.02
2022-10-30T06:21:49.577Z,13.55
2022-10-30T06:24:53.598Z,19.30
2022-10-30T06:27:58.802Z,15.30
2022-10-30T06:31:02.956Z,15.23
2022-10-30T06:34:07.205Z,15.60
2022-10-30T06:37:11.658Z,17.98
2022-10-30T06:40:16.738Z,19.00
2022-10-30T06:43:20.972Z,17.52
2022-10-30T06:46:27.467Z,25.25
2022-10-30T06:49:34.511Z,20.42
2022-10-30T06:52:39.061Z,18.15
2022-10-30T06:55:42.980Z,15.10
2022-10-30T06:58:47.158Z,12.35
2022-10-30T07:01:54.244Z,20.95
2022-10-30T07:05:01.753Z,15.23
2022-10-30T07:08:05.995Z,22.15
2022-10-30T07:11:10.093Z,18.83
2022-10-30T07:14:13.975Z,14.65
2022-10-30T07:17:17.927Z,21.02
2022-10-30T07:20:22.196Z,21.45
2022-10-30T07:23:26.296Z,17.77
2022-10-30T07:26:30.409Z,13.13
2022-10-30T07:29:34.698Z,17.13
2022-10-30T07:32:38.914Z,14.50
2022-10-30T07:35:43.206Z,17.75
2022-10-30T07:38:51.438Z,16.77
2022-10-30T07:41:55.393Z,17.55
2022-10-30T07:44:59.828Z,17.67
2022-10-30T07:48:04.284Z,16.67
2022-10-30T07:51:08.691Z,15.25
2022-10-30T07:54:12.883Z,14.40
2022-10-30T07:57:16.895Z,16.58
2022-10-30T08:00:21.128Z,18.30
2022-10-30T08:03:25.065Z,14.35
2022-10-30T08:06:29.069Z,15.75
2022-10-30T08:09:32.823Z,16.05
2022-10-30T08:12:38.312Z,18.30
2022-10-30T08:15:42.915Z,16.85
2022-10-30T08:18:47.245Z,17.50
2022-10-30T08:21:54.816Z,16.23
2022-10-30T08:25:01.966Z,16.50
2022-10-30T08:28:07.457Z,13.70
2022-10-30T08:31:11.355Z,15.60
2022-10-30T08:34:15.193Z,18.67
2022-10-30T08:37:19.284Z,15.35
2022-10-30T08:40:24.509Z,18.23
2022-10-30T08:43:28.727Z,19.45
2022-10-30T08:46:32.751Z,19.77
2022-10-30T08:49:36.580Z,18.63
2022-10-30T08:52:40.577Z,17.50
2022-10-30T08:55:44.583Z,20.13
2022-10-30T08:58:50.446Z,18.08
2022-10-30T09:01:54.475Z,20.20
2022-10-30T09:04:58.591Z,16.05
2022-10-30T09:08:03.286Z,13.77
2022-10-30T09:11:07.304Z,17.40
2022-10-30T09:14:11.606Z,19.13
2022-10-30T09:17:15.813Z,18.92
2022-10-30T09:20:19.457Z,16.40
2022-10-30T09:23:23.485Z,15.35
2022-10-30T09:26:29.115Z,19.63
2022-10-30T09:29:33.510Z,16.00
2022-10-30T09:32:37.323Z,19.67
2022-10-30T09:35:41.103Z,17.98
2022-10-30T09:38:45.569Z,23.10
2022-10-30T09:42:17.474Z,14.20
2022-10-30T09:45:53.515Z,22.10
2022-10-30T09:49:19.451Z,16.48
2022-10-30T09:52:34.481Z,21.10
2022-10-30T09:55:55.623Z,13.13
2022-10-30T09:59:00.896Z,19.55
2022-10-30T10:02:26.353Z,21.05
2022-10-30T10:06:02.474Z,15.50
2022-10-30T10:09:17.081Z,22.90
2022-10-30T10:12:33.743Z,18.58
2022-10-30T10:15:45.732Z,15.05
2022-10-30T10:19:00.486Z,17.48
2022-10-30T10:22:17.287Z,21.05
2022-10-30T10:25:21.490Z,13.18
2022-10-30T10:28:44.452Z,19.08
2022-10-30T10:32:06.814Z,13.05
2022-10-30T10:35:37.873Z,20.88
2022-10-30T10:39:05.032Z,16.02
2022-10-30T10:42:35.256Z,20.40
2022-10-30T10:46:12.898Z,15.27
2022-10-30T10:49:24.920Z,24.40
2022-10-30T10:52:36.837Z,16.10
2022-10-30T10:55:44.277Z,22.27
2022-10-30T10:59:01.220Z,20.85
2022-10-30T11:02:05.578Z,15.25
2022-10-30T11:05:24.585Z,13.63
2022-10-30T11:08:31.216Z,20.15
2022-10-30T11:11:35.305Z,21.02
2022-10-30T11:14:39.651Z,20.95
2022-10-30T11:18:10.405Z,17.70
2022-10-30T11:21:23.670Z,14.23
2022-10-30T11:24:35.805Z,15.60
2022-10-30T11:27:39.875Z,16.05
2022-10-30T11:30:44.001Z,19.05
2022-10-30T11:33:48.496Z,15.38
2022-10-30T11:36:54.428Z,14.90
2022-10-30T11:40:21.027Z,19.42
2022-10-30T11:43:26.205Z,18.20
2022-10-30T11:46:30.158Z,16.65
2022-10-30T11:49:46.198Z,18.05
2022-10-30T11:52:55.294Z,17.23
2022-10-30T11:55:59.641Z,15.00
2022-10-30T11:59:05.510Z,13.90
2022-10-30T12:02:28.363Z,17.90
2022-10-30T12:05:32.616Z,16.17
2022-10-30T12:08:36.314Z,15.63
2022-10-30T12:11:44.405Z,18.48
2022-10-30T12:14:48.357Z,14.18
2022-10-30T12:18:16.363Z,15.60
2022-10-30T12:21:20.998Z,18.00
2022-10-30T12:24:34.502Z,21.73
2022-10-30T12:27:38.731Z,18.88
2022-10-30T12:31:00.216Z,15.60
2022-10-30T12:34:22.113Z,18.83
2022-10-30T12:37:32.254Z,22.13
2022-10-30T12:40:42.761Z,15.10
2022-10-30T12:43:55.911Z,18.30
2022-10-30T12:47:18.331Z,15.35
2022-10-30T12:51:03.956Z,17.25
2022-10-30T12:54:22.051Z,21.05
2022-10-30T12:57:36.027Z,11.85
2022-10-30T13:00:54.621Z,20.15
2022-10-30T13:04:39.521Z,16.65
2022-10-30T13:07:52.436Z,22.20
2022-10-30T13:11:04.562Z,20.85
2022-10-30T13:14:19.037Z,17.23
2022-10-30T13:17:23.692Z,23.73
2022-10-30T13:20:30.615Z,24.48
2022-10-30T13:23:40.116Z,17.48
2022-10-30T13:26:58.645Z,17.10
2022-10-30T13:30:10.542Z,21.13
2022-10-30T13:33:31.649Z,17.45
2022-10-30T13:36:55.887Z,18.52
2022-10-30T13:40:17.295Z,19.40
2022-10-30T13:43:41.828Z,18.50
2022-10-30T13:47:08.434Z,18.80
2022-10-30T13:50:50.959Z,19.50
2022-10-30T13:54:08.637Z,17.33
2022-10-30T13:57:32.809Z,15.85
2022-10-30T14:00:51.726Z,21.80
2022-10-30T14:04:01.939Z,18.48
2022-10-30T14:07:33.448Z,19.25
2022-10-30T14:10:40.376Z,14.02
2022-10-30T14:14:03.453Z,15.27
2022-10-30T14:17:14.372Z,17.10
2022-10-30T14:20:26.573Z,17.02
2022-10-30T14:23:35.113Z,24.27
2022-10-30T14:26:49.979Z,16.85
2022-10-30T14:29:57.935Z,17.23
2022-10-30T14:33:02.497Z,17.70
2022-10-30T14:36:46.427Z,19.55
2022-10-30T14:39:51.721Z,14.60
2022-10-30T14:43:02.231Z,15.57
2022-10-30T14:46:30.024Z,17.48
2022-10-30T14:49:43.011Z,13.55
2022-10-30T14:53:21.498Z,18.60
2022-10-30T14:56:36.412Z,12.65
2022-10-30T14:59:40.199Z,18.75
2022-10-30T15:03:14.825Z,17.67
2022-10-30T15:06:43.501Z,13.82
2022-10-30T15:09:47.701Z,15.80
2022-10-30T15:13:02.378Z,15.85
2022-10-30T15:16:09.003Z,15.90
2022-10-30T15:19:15.626Z,16.13
2022-10-30T15:22:23.200Z,14.15
2022-10-30T15:25:34.466Z,17.13
2022-10-30T15:28:39.102Z,17.02
2022-10-30T15:31:43.084Z,18.38
2022-10-30T15:35:15.810Z,21.65
2022-10-30T15:38:19.736Z,18.42
2022-10-30T15:41:23.574Z,19.52
2022-10-30T15:44:31.895Z,20.02
2022-10-30T15:47:36.124Z,19.83
2022-10-30T15:50:44.696Z,19.15
2022-10-30T15:53:51.043Z,27.73
2022-10-30T15:57:36.545Z,20.70
2022-10-30T16:00:27.869Z,21.58
2022-10-30T16:03:32.729Z,21.80
2022-10-30T16:06:37.309Z,22.83
2022-10-30T16:09:52.616Z,26.48
2022-10-30T16:12:58.217Z,19.58
2022-10-30T16:16:04.013Z,27.50
2022-10-30T16:19:08.112Z,20.67
2022-10-30T16:22:16.920Z,24.95
2022-10-30T16:25:21.459Z,24.30
2022-10-30T16:28:29.986Z,22.13
2022-10-30T16:31:36.025Z,23.33
2022-10-30T16:34:41.700Z,23.10
2022-10-30T16:37:46.561Z,21.63
2022-10-30T16:40:51.443Z,22.45
2022-10-30T16:44:14.100Z,21.50
2022-10-30T16:47:18.378Z,27.83
2022-10-30T16:50:22.335Z,24.65
2022-10-30T16:53:27.812Z,25.35
2022-10-30T16:56:32.644Z,29.55
2022-10-30T16:59:43.965Z,21.13
2022-10-30T17:02:50.333Z,26.67
2022-10-30T17:06:04.748Z,24.23
2022-10-30T17:09:24.881Z,28.55
2022-10-30T17:12:29.581Z,31.23
2022-10-30T17:15:33.393Z,25.95
2022-10-30T17:18:38.517Z,32.10
2022-10-30T17:21:42.822Z,30.63
2022-10-30T17:24:47.715Z,30.90
2022-10-30T17:27:51.759Z,41.88
2022-10-30T17:30:56.468Z,35.78
2022-10-30T17:34:16.133Z,34.78
2022-10-30T17:37:20.320Z,38.28
2022-10-30T17:40:24.157Z,33.88
2022-10-30T17:43:30.029Z,28.48
2022-10-30T17:46:34.243Z,26.30
2022-10-30T17:49:38.264Z,28.33
2022-10-30T17:52:42.584Z,32.95
2022-10-30T17:55:51.668Z,29.70
2022-10-30T17:58:58.564Z,20.83
2022-10-30T18:02:02.567Z,27.08
2022-10-30T18:05:15.233Z,24.67
2022-10-30T18:08:19.353Z,25.27
2022-10-30T18:11:24.564Z,31.13
2022-10-30T18:14:28.316Z,22.77
2022-10-30T18:17:32.564Z,25.85
2022-10-30T18:20:36.627Z,34.40
2022-10-30T18:23:56.156Z,31.52
2022-10-30T18:26:59.825Z,24.27
2022-10-30T18:30:04.305Z,29.70
2022-10-30T18:33:10.706Z,30.52
2022-10-30T18:36:23.890Z,31.52
2022-10-30T18:39:27.956Z,28.02
2022-10-30T18:42:32.276Z,34.05
2022-10-30T18:45:38.117Z,31.10
2022-10-30T18:48:43.005Z,25.63
2022-10-30T18:51:47.333Z,33.33
2022-10-30T18:54:51.236Z,34.53
2022-10-30T18:57:55.153Z,36.05
2022-10-30T19:01:11.496Z,30.65
2022-10-30T19:04:21.644Z,28.60
2022-10-30T19:07:26.855Z,36.92
2022-10-30T19:10:33.890Z,36.65
2022-10-30T19:13:37.827Z,31.67
2022-10-30T19:16:41.977Z,28.98
2022-10-30T19:19:46.123Z,28.45
2022-10-30T19:22:50.024Z,32.50
2022-10-30T19:25:55.139Z,27.52
2022-10-30T19:28:58.993Z,26.00
2022-10-30T19:32:02.873Z,36.38
2022-10-30T19:35:07.762Z,33.38
2022-10-30T19:38:13.037Z,31.98
2022-10-30T19:41:16.988Z,45.85
2022-10-30T19:44:20.766Z,39.38
2022-10-30T19:47:24.635Z,53.97
2022-10-30T19:50:37.604Z,32.85
2022-10-30T19:53:41.307Z,32.00
2022-10-30T19:56:45.274Z,29.35
2022-10-30T19:59:49.323Z,26.38
2022-10-30T20:02:55.571Z,31.98
2022-10-30T20:05:59.758Z,32.30
2022-10-30T20:09:05.339Z,37.67
2022-10-30T20:12:09.434Z,27.40
2022-10-30T20:15:15.961Z,33.45
2022-10-30T20:18:23.243Z,28.05
2022-10-30T20:21:27.417Z,31.92
2022-10-30T20:24:31.951Z,25.38
2022-10-30T20:27:36.057Z,25.48
2022-10-30T20:30:40.409Z,35.65
2022-10-30T20:33:44.270Z,35.92
2022-10-30T20:36:48.567Z,28.80
2022-10-30T20:39:52.591Z,28.90
2022-10-30T20:43:02.662Z,26.95
2022-10-30T20:46:09.317Z,32.80
2022-10-30T20:49:18.095Z,35.65
2022-10-30T20:52:22.362Z,33.78
2022-10-30T20:55:27.171Z,31.60
2022-10-30T20:58:31.319Z,27.17
2022-10-30T21:01:35.345Z,32.78
2022-10-30T21:04:40.101Z,29.90
2022-10-30T21:07:44.041Z,26.77
2022-10-30T21:10:47.948Z,29.75
2022-10-30T21:13:56.298Z,31.83
2022-10-30T21:17:00.387Z,26.27
2022-10-30T21:20:04.695Z,24.27
2022-10-30T21:23:09.079Z,21.92
2022-10-30T21:26:13.355Z,22.55
2022-10-30T21:29:17.423Z,25.77
2022-10-30T21:32:21.356Z,21.35
2022-10-30T21:35:25.305Z,21.80
2022-10-30T21:38:29.455Z,21.00
2022-10-30T21:41:33.426Z,22.75
2022-10-30T21:44:37.336Z,22.35
2022-10-30T21:47:41.133Z,20.85
2022-10-30T21:50:45.008Z,19.13
2022-10-30T21:53:49.323Z,19.00
2022-10-30T21:56:53.282Z,19.70
2022-10-30T22:00:00.022Z,21.67
2022-10-30T22:03:09.912Z,20.33
2022-10-30T22:06:16.078Z,19.23
2022-10-30T22:09:19.992Z,21.95
2022-10-30T22:12:23.770Z,23.67
2022-10-30T22:15:27.785Z,22.17
2022-10-30T22:18:31.777Z,18.38
2022-10-30T22:21:35.854Z,13.77
2022-10-30T22:24:39.820Z,17.58
2022-10-30T22:27:45.810Z,17.40
2022-10-30T22:30:50.641Z,20.17
2022-10-30T22:33:54.452Z,20.58
2022-10-30T22:36:58.484Z,18.15
2022-10-30T22:40:02.648Z,18.80
2022-10-30T22:43:06.799Z,15.45
2022-10-30T22:46:11.690Z,18.98
2022-10-30T22:49:16.635Z,17.63
2022-10-30T22:52:20.603Z,18.33
2022-10-30T22:55:24.856Z,18.45
2022-10-30T22:58:29.949Z,21.83
2022-10-30T23:01:36.719Z,16.52
2022-10-30T23:04:41.968Z,16.63
2022-10-30T23:07:46.013Z,18.13
2022-10-30T23:10:53.803Z,17.33
2022-10-30T23:13:57.737Z,17.88
2022-10-30T23:17:01.701Z,15.68
2022-10-30T23:20:07.532Z,18.85
2022-10-30T23:23:12.153Z,21.85
2022-10-30T23:26:19.014Z,18.33
2022-10-30T23:29:23.099Z,16.88
2022-10-30T23:32:26.936Z,12.68
2022-10-30T23:35:30.929Z,16.05
2022-10-30T23:38:34.593Z,16.83
2022-10-30T23:41:38.323Z,18.02
2022-10-30T23:44:42.092Z,20.48
2022-10-30T23:47:45.909Z,18.80
2022-10-30T23:50:49.943Z,18.92
2022-10-30T23:53:54.279Z,16.95
2022-10-30T23:56:58.216Z,17.50
